createdAt,value
2023-04-27T00:01:42.079Z,1.97
2023-04-27T00:04:09.404Z,1.97
2023-04-27T00:06:36.843Z,1.90
2023-04-27T00:09:04.590Z,1.85
2023-04-27T00:11:31.716Z,1.91
2023-04-27T00:13:58.743Z,1.86
2023-04-27T00:16:26.136Z,1.87
2023-04-27T00:18:53.859Z,1.85
2023-04-27T00:21:21.019Z,1.84
2023-04-27T00:23:48.058Z,1.83
2023-04-27T00:26:15.126Z,1.80
2023-04-27T00:28:44.575Z,1.78
2023-04-27T00:31:11.661Z,1.76
2023-04-27T00:33:38.766Z,1.75
2023-04-27T00:36:06.598Z,1.70
2023-04-27T00:38:33.642Z,1.72
2023-04-27T00:41:04.944Z,1.76
2023-04-27T00:43:32.653Z,1.72
2023-04-27T00:46:00.280Z,1.74
2023-04-27T00:48:27.631Z,1.73
2023-04-27T00:50:54.876Z,1.73
2023-04-27T00:53:22.282Z,1.70
2023-04-27T00:55:49.953Z,1.74
2023-04-27T00:58:17.180Z,1.74
2023-04-27T01:00:44.262Z,1.79
2023-04-27T01:03:11.842Z,1.77
2023-04-27T01:05:39.312Z,1.70
2023-04-27T01:08:08.313Z,1.64
2023-04-27T01:10:36.133Z,1.58
2023-04-27T01:13:03.337Z,1.50
2023-04-27T01:15:31.321Z,1.48
2023-04-27T01:17:59.686Z,1.44
2023-04-27T01:20:31.928Z,1.46
2023-04-27T01:22:59.777Z,1.40
2023-04-27T01:25:26.752Z,1.35
2023-04-27T01:27:54.462Z,1.28
2023-04-27T01:30:24.345Z,1.24
2023-04-27T01:32:52.278Z,1.26
2023-04-27T01:35:19.895Z,1.23
2023-04-27T01:37:47.129Z,1.21
2023-04-27T01:40:14.488Z,1.17
2023-04-27T01:42:42.136Z,1.16
2023-04-27T01:45:10.004Z,1.21
2023-04-27T01:47:38.053Z,1.18
2023-04-27T01:50:06.246Z,1.18
2023-04-27T01:52:33.348Z,1.15
2023-04-27T01:55:03.132Z,1.12
2023-04-27T01:57:31.010Z,1.14
2023-04-27T01:59:58.131Z,1.15
2023-04-27T02:02:25.369Z,1.10
2023-04-27T02:04:52.648Z,1.09
2023-04-27T02:07:19.898Z,1.10
2023-04-27T02:09:47.532Z,1.03
2023-04-27T02:12:14.625Z,1.04
2023-04-27T02:14:41.669Z,1.04
2023-04-27T02:17:08.749Z,1.04
2023-04-27T02:19:36.404Z,1.03
2023-04-27T02:22:04.078Z,1.07
2023-04-27T02:24:31.177Z,1.03
2023-04-27T02:26:58.239Z,1.10
2023-04-27T02:29:30.076Z,1.08
2023-04-27T02:31:57.508Z,1.05
2023-04-27T02:34:24.604Z,0.99
2023-04-27T02:36:52.003Z,0.90
2023-04-27T02:39:20.095Z,0.86
2023-04-27T02:41:47.142Z,0.84
2023-04-27T02:44:15.806Z,0.86
2023-04-27T02:46:42.966Z,0.88
2023-04-27T02:49:10.030Z,0.84
2023-04-27T02:51:37.076Z,0.84
2023-04-27T02:54:04.253Z,0.82
2023-04-27T02:56:31.583Z,0.80
2023-04-27T02:58:59.579Z,0.81
2023-04-27T03:01:27.634Z,0.80
2023-04-27T03:03:54.973Z,0.77
2023-04-27T03:06:22.245Z,0.78
2023-04-27T03:08:49.284Z,0.78
2023-04-27T03:11:16.559Z,0.76
2023-04-27T03:13:43.745Z,0.78
2023-04-27T03:16:11.490Z,0.75
2023-04-27T03:18:39.946Z,0.71
2023-04-27T03:21:11.318Z,0.70
2023-04-27T03:23:39.698Z,0.69
2023-04-27T03:26:11.382Z,0.66
2023-04-27T03:28:40.088Z,0.67
2023-04-27T03:31:12.424Z,0.59
2023-04-27T03:33:40.851Z,0.56
2023-04-27T03:36:08.863Z,0.54
2023-04-27T03:38:36.253Z,0.54
2023-04-27T03:41:04.232Z,0.55
2023-04-27T03:43:31.326Z,0.56
2023-04-27T03:45:58.817Z,0.61
2023-04-27T03:48:26.698Z,0.59
2023-04-27T03:50:55.633Z,0.53
2023-04-27T03:53:22.692Z,0.53
2023-04-27T03:55:51.502Z,0.49
2023-04-27T03:58:18.592Z,0.46
2023-04-27T04:01:04.330Z,0.34
2023-04-27T04:03:31.589Z,0.33
2023-04-27T04:05:59.016Z,0.25
2023-04-27T04:08:26.110Z,0.12
2023-04-27T04:10:53.390Z,0.17
2023-04-27T04:13:20.657Z,0.27
2023-04-27T04:15:47.771Z,0.32
2023-04-27T04:18:14.947Z,0.31
2023-04-27T04:20:42.485Z,0.32
2023-04-27T04:23:09.561Z,0.32
2023-04-27T04:25:37.248Z,0.31
2023-04-27T04:28:04.482Z,0.31
2023-04-27T04:30:32.540Z,0.33
2023-04-27T04:32:59.759Z,0.43
2023-04-27T04:35:26.945Z,0.35
2023-04-27T04:37:54.010Z,0.36
2023-04-27T04:40:21.486Z,0.41
2023-04-27T04:42:48.581Z,0.37
2023-04-27T04:45:15.641Z,0.40
2023-04-27T04:47:42.734Z,0.55
2023-04-27T04:50:11.783Z,0.53
2023-04-27T04:52:39.486Z,0.59
2023-04-27T04:55:06.728Z,0.76
2023-04-27T04:57:33.809Z,0.93
2023-04-27T05:00:01.936Z,1.08
2023-04-27T05:02:29.253Z,1.20
2023-04-27T05:04:57.557Z,1.24
2023-04-27T05:07:25.171Z,1.27
2023-04-27T05:09:52.453Z,1.23
2023-04-27T05:12:19.531Z,1.28
2023-04-27T05:14:46.638Z,1.33
2023-04-27T05:17:13.782Z,1.26
2023-04-27T05:19:40.957Z,1.48
2023-04-27T05:22:08.019Z,1.58
2023-04-27T05:24:35.133Z,1.58
2023-04-27T05:27:02.545Z,1.69
2023-04-27T05:29:29.736Z,1.69
2023-04-27T05:31:57.215Z,1.77
2023-04-27T05:34:24.308Z,1.97
2023-04-27T05:36:51.382Z,2.18
2023-04-27T05:39:18.434Z,2.36
2023-04-27T05:41:45.499Z,2.32
2023-04-27T05:44:12.578Z,2.46
2023-04-27T05:46:39.649Z,2.34
2023-04-27T05:49:06.806Z,2.24
2023-04-27T05:51:34.077Z,2.30
2023-04-27T05:54:02.088Z,2.51
2023-04-27T05:56:29.383Z,2.60
2023-04-27T05:58:56.468Z,2.71
2023-04-27T06:01:23.805Z,2.81
2023-04-27T06:03:51.031Z,3.22
2023-04-27T06:06:18.251Z,3.75
2023-04-27T06:08:45.643Z,3.96
2023-04-27T06:11:14.016Z,3.93
2023-04-27T06:13:41.509Z,3.88
2023-04-27T06:16:08.621Z,3.90
2023-04-27T06:18:35.903Z,4.08
2023-04-27T06:21:03.048Z,4.43
2023-04-27T06:23:30.197Z,4.50
2023-04-27T06:25:58.755Z,4.81
2023-04-27T06:28:26.282Z,5.07
2023-04-27T06:30:53.774Z,5.33
2023-04-27T06:33:20.822Z,5.46
2023-04-27T06:35:47.871Z,5.37
2023-04-27T06:38:14.913Z,5.33
2023-04-27T06:40:41.978Z,5.35
2023-04-27T06:43:09.068Z,5.25
2023-04-27T06:45:36.384Z,5.63
2023-04-27T06:48:03.703Z,5.96
2023-04-27T06:50:30.932Z,6.11
2023-04-27T06:52:58.122Z,6.65
2023-04-27T06:55:25.366Z,6.53
2023-04-27T06:57:52.474Z,6.67
2023-04-27T07:00:20.046Z,7.23
2023-04-27T07:02:47.229Z,7.74
2023-04-27T07:05:14.367Z,8.06
2023-04-27T07:07:41.437Z,7.66
2023-04-27T07:10:09.210Z,7.76
2023-04-27T07:12:37.685Z,8.42
2023-04-27T07:15:06.581Z,8.93
2023-04-27T07:17:36.924Z,9.23
2023-04-27T07:20:06.508Z,10.13
2023-04-27T07:22:34.186Z,9.03
2023-04-27T07:25:01.324Z,9.16
2023-04-27T07:27:29.674Z,9.70
2023-04-27T07:29:56.937Z,9.50
2023-04-27T07:32:24.271Z,9.34
2023-04-27T07:34:54.180Z,9.05
2023-04-27T07:37:22.903Z,9.28
2023-04-27T07:39:52.096Z,9.47
2023-04-27T07:42:19.994Z,9.00
2023-04-27T07:44:47.462Z,9.00
2023-04-27T07:47:14.491Z,8.89
2023-04-27T07:49:41.606Z,9.15
2023-04-27T07:52:08.696Z,8.39
2023-04-27T07:54:36.081Z,8.33
2023-04-27T07:57:10.091Z,8.07
2023-04-27T07:59:38.347Z,8.05
2023-04-27T08:02:17.696Z,8.16
2023-04-27T08:04:49.824Z,8.06
2023-04-27T08:07:18.387Z,8.64
2023-04-27T08:09:45.821Z,9.22
2023-04-27T08:12:12.982Z,9.34
2023-04-27T08:14:40.148Z,9.45
2023-04-27T08:17:07.389Z,8.99
2023-04-27T08:19:34.925Z,9.48
2023-04-27T08:22:02.340Z,9.17
2023-04-27T08:24:29.537Z,9.41
2023-04-27T08:26:56.889Z,9.82
2023-04-27T08:29:28.409Z,9.89
2023-04-27T08:31:59.888Z,9.47
2023-04-27T08:34:28.461Z,9.50
2023-04-27T08:36:56.721Z,9.78
2023-04-27T08:39:24.968Z,10.38
2023-04-27T08:41:52.675Z,10.80
2023-04-27T08:44:19.730Z,10.88
2023-04-27T08:46:51.125Z,10.65
2023-04-27T08:49:18.952Z,10.75
2023-04-27T08:51:46.696Z,11.43
2023-04-27T08:54:13.832Z,11.16
2023-04-27T08:56:42.535Z,11.48
2023-04-27T08:59:18.025Z,11.53
2023-04-27T09:01:48.650Z,11.39
2023-04-27T09:04:18.082Z,11.52
2023-04-27T09:06:52.768Z,11.11
2023-04-27T09:09:24.201Z,11.19
2023-04-27T09:11:58.472Z,11.48
2023-04-27T09:14:25.697Z,12.02
2023-04-27T09:17:00.135Z,11.57
2023-04-27T09:19:28.774Z,11.46
2023-04-27T09:22:15.602Z,10.77
2023-04-27T09:24:55.040Z,10.21
2023-04-27T09:27:22.951Z,9.21
2023-04-27T09:29:52.829Z,9.59
2023-04-27T09:32:23.916Z,10.54
2023-04-27T09:34:51.480Z,11.61
2023-04-27T09:37:26.794Z,11.25
2023-04-27T09:39:54.183Z,10.48
2023-04-27T09:42:30.628Z,9.95
2023-04-27T09:45:02.718Z,9.29
2023-04-27T09:47:30.662Z,8.92
2023-04-27T09:50:00.765Z,8.79
2023-04-27T09:52:31.574Z,8.49
2023-04-27T09:55:00.303Z,8.65
2023-04-27T09:57:41.216Z,8.50
2023-04-27T10:00:29.924Z,8.38
2023-04-27T10:03:23.762Z,8.29
2023-04-27T10:06:37.821Z,9.04
2023-04-27T10:09:06.523Z,10.55
2023-04-27T10:11:39.976Z,11.66
2023-04-27T10:14:09.399Z,10.83
2023-04-27T10:16:45.786Z,10.35
2023-04-27T10:19:18.297Z,10.96
2023-04-27T10:21:57.485Z,11.48
2023-04-27T10:24:41.910Z,11.91
2023-04-27T10:27:12.177Z,11.35
2023-04-27T10:29:43.952Z,10.02
2023-04-27T10:32:24.503Z,9.33
2023-04-27T10:35:02.133Z,8.99
2023-04-27T10:37:44.987Z,9.11
2023-04-27T10:40:14.981Z,8.76
2023-04-27T10:42:42.305Z,8.51
2023-04-27T10:45:16.184Z,8.65
2023-04-27T10:47:46.716Z,8.55
2023-04-27T10:50:15.564Z,8.61
2023-04-27T10:52:44.257Z,8.85
2023-04-27T10:55:18.206Z,9.09
2023-04-27T10:57:53.900Z,9.28
2023-04-27T11:00:25.722Z,9.22
2023-04-27T11:02:57.909Z,9.53
2023-04-27T11:05:30.379Z,10.06
2023-04-27T11:08:15.333Z,10.07
2023-04-27T11:10:49.391Z,9.65
2023-04-27T11:13:24.624Z,9.76
2023-04-27T11:15:57.852Z,11.18
2023-04-27T11:18:29.736Z,12.21
2023-04-27T11:21:16.089Z,12.83
2023-04-27T11:23:43.772Z,12.78
2023-04-27T11:26:15.074Z,12.47
2023-04-27T11:29:09.467Z,11.81
2023-04-27T11:31:57.061Z,10.85
2023-04-27T11:34:24.961Z,10.02
2023-04-27T11:37:10.807Z,10.10
2023-04-27T11:39:45.833Z,9.98
2023-04-27T11:42:22.363Z,10.06
2023-04-27T11:44:58.605Z,10.12
2023-04-27T11:47:28.805Z,11.09
2023-04-27T11:50:09.030Z,11.62
2023-04-27T11:52:40.709Z,11.56
2023-04-27T11:55:15.754Z,11.54
2023-04-27T11:57:43.235Z,11.10
2023-04-27T12:00:11.128Z,11.23
2023-04-27T12:02:46.822Z,11.32
2023-04-27T12:05:18.068Z,11.14
2023-04-27T12:07:45.517Z,11.35
2023-04-27T12:10:21.660Z,11.08
2023-04-27T12:12:49.600Z,10.98
2023-04-27T12:15:16.828Z,10.85
2023-04-27T12:17:47.192Z,10.52
2023-04-27T12:20:17.045Z,10.43
2023-04-27T12:22:55.016Z,10.56
2023-04-27T12:25:25.170Z,11.02
2023-04-27T12:27:52.347Z,11.01
2023-04-27T12:30:21.745Z,11.38
2023-04-27T12:32:49.140Z,11.54
2023-04-27T12:35:16.435Z,12.15
2023-04-27T12:37:46.020Z,12.04
2023-04-27T12:40:14.377Z,11.80
2023-04-27T12:42:44.896Z,12.30
2023-04-27T12:45:17.515Z,12.51
2023-04-27T12:48:01.757Z,11.72
2023-04-27T12:50:36.776Z,10.69
2023-04-27T12:53:03.806Z,10.32
2023-04-27T12:55:33.798Z,10.36
2023-04-27T12:58:03.307Z,11.13
2023-04-27T13:00:36.526Z,11.65
2023-04-27T13:03:04.561Z,11.44
2023-04-27T13:05:37.157Z,11.24
2023-04-27T13:08:16.551Z,11.64
2023-04-27T13:10:49.681Z,11.94
2023-04-27T13:13:23.159Z,12.55
2023-04-27T13:15:50.692Z,12.65
2023-04-27T13:18:21.107Z,12.18
2023-04-27T13:20:48.844Z,11.71
2023-04-27T13:23:16.142Z,10.51
2023-04-27T13:25:43.317Z,10.45
2023-04-27T13:28:16.252Z,11.19
2023-04-27T13:30:43.523Z,11.49
2023-04-27T13:33:23.251Z,11.67
2023-04-27T13:35:51.721Z,11.34
2023-04-27T13:38:25.156Z,11.38
2023-04-27T13:40:53.708Z,11.29
2023-04-27T13:43:20.800Z,11.18
2023-04-27T13:45:49.599Z,11.47
2023-04-27T13:48:19.641Z,11.94
2023-04-27T13:50:50.033Z,12.08
2023-04-27T13:53:29.147Z,11.72
2023-04-27T13:55:59.457Z,11.42
2023-04-27T13:58:29.112Z,11.77
2023-04-27T14:00:56.592Z,12.04
2023-04-27T14:03:29.956Z,12.15
2023-04-27T14:05:57.176Z,11.90
2023-04-27T14:08:24.384Z,11.23
2023-04-27T14:10:55.096Z,11.20
2023-04-27T14:13:27.565Z,11.11
2023-04-27T14:15:57.034Z,11.19
2023-04-27T14:18:32.255Z,11.98
2023-04-27T14:21:00.253Z,12.63
2023-04-27T14:23:27.557Z,12.66
2023-04-27T14:25:54.978Z,12.57
2023-04-27T14:28:22.090Z,11.82
2023-04-27T14:30:54.331Z,11.06
2023-04-27T14:33:45.158Z,11.31
2023-04-27T14:36:15.413Z,11.61
2023-04-27T14:38:54.336Z,11.93
2023-04-27T14:41:22.806Z,11.66
2023-04-27T14:43:50.000Z,11.64
2023-04-27T14:46:20.928Z,11.70
2023-04-27T14:48:49.644Z,12.10
2023-04-27T14:51:20.001Z,12.14
2023-04-27T14:53:49.697Z,11.67
2023-04-27T14:56:28.563Z,11.25
2023-04-27T14:58:56.007Z,11.72
2023-04-27T15:01:32.015Z,12.04
2023-04-27T15:04:02.633Z,12.13
2023-04-27T15:06:31.548Z,11.83
2023-04-27T15:08:59.830Z,11.77
2023-04-27T15:11:27.628Z,11.74
2023-04-27T15:14:00.899Z,11.48
2023-04-27T15:16:39.433Z,11.50
2023-04-27T15:19:07.181Z,11.21
2023-04-27T15:21:40.284Z,10.90
2023-04-27T15:24:07.465Z,10.54
2023-04-27T15:26:34.589Z,10.67
2023-04-27T15:29:01.887Z,10.67
2023-04-27T15:31:29.823Z,10.76
2023-04-27T15:34:00.497Z,11.01
2023-04-27T15:36:28.468Z,11.21
2023-04-27T15:39:17.308Z,11.13
2023-04-27T15:41:50.436Z,10.98
2023-04-27T15:44:23.873Z,11.41
2023-04-27T15:46:53.537Z,11.39
2023-04-27T15:49:21.222Z,10.89
2023-04-27T15:51:51.859Z,10.73
2023-04-27T15:54:20.851Z,10.52
2023-04-27T15:56:49.699Z,10.71
2023-04-27T15:59:16.994Z,10.72
2023-04-27T16:01:53.395Z,10.95
2023-04-27T16:04:26.550Z,10.59
2023-04-27T16:06:56.528Z,10.46
2023-04-27T16:09:24.101Z,10.25
2023-04-27T16:11:51.403Z,10.13
2023-04-27T16:14:18.393Z,10.26
2023-04-27T16:16:46.367Z,10.72
2023-04-27T16:19:14.142Z,10.74
2023-04-27T16:21:41.407Z,10.64
2023-04-27T16:24:08.688Z,10.72
2023-04-27T16:26:37.412Z,10.92
2023-04-27T16:29:09.710Z,11.01
2023-04-27T16:31:38.856Z,10.59
2023-04-27T16:34:06.121Z,10.45
2023-04-27T16:36:37.740Z,10.65
2023-04-27T16:39:05.279Z,10.75
2023-04-27T16:41:32.575Z,10.31
2023-04-27T16:43:59.816Z,10.20
2023-04-27T16:46:27.082Z,10.18
2023-04-27T16:48:54.414Z,10.31
2023-04-27T16:51:24.910Z,10.32
2023-04-27T16:53:52.004Z,10.21
2023-04-27T16:56:30.300Z,10.29
2023-04-27T16:58:58.234Z,10.17
2023-04-27T17:01:28.846Z,10.16
2023-04-27T17:03:57.857Z,9.91
2023-04-27T17:06:26.292Z,9.78
2023-04-27T17:08:53.723Z,9.88
2023-04-27T17:11:21.174Z,9.92
2023-04-27T17:13:51.082Z,10.03
2023-04-27T17:16:19.685Z,10.02
2023-04-27T17:18:48.642Z,9.87
2023-04-27T17:21:16.782Z,9.77
2023-04-27T17:23:46.572Z,9.72
2023-04-27T17:26:16.025Z,9.74
2023-04-27T17:28:43.396Z,9.67
2023-04-27T17:31:10.472Z,9.56
2023-04-27T17:33:39.185Z,9.42
2023-04-27T17:36:09.203Z,9.27
2023-04-27T17:38:36.408Z,9.13
2023-04-27T17:41:03.461Z,8.96
2023-04-27T17:43:32.097Z,8.77
2023-04-27T17:45:59.352Z,8.74
2023-04-27T17:48:29.595Z,8.48
2023-04-27T17:50:56.800Z,8.43
2023-04-27T17:53:23.862Z,8.18
2023-04-27T17:55:52.662Z,8.12
2023-04-27T17:58:19.814Z,8.04
2023-04-27T18:00:48.157Z,7.95
2023-04-27T18:03:17.945Z,7.80
2023-04-27T18:05:45.225Z,7.59
2023-04-27T18:08:12.413Z,7.42
2023-04-27T18:10:39.503Z,7.30
2023-04-27T18:13:06.646Z,7.12
2023-04-27T18:15:33.805Z,6.98
2023-04-27T18:18:01.591Z,6.89
2023-04-27T18:20:28.702Z,6.88
2023-04-27T18:22:55.957Z,7.00
2023-04-27T18:25:23.030Z,7.08
2023-04-27T18:27:55.281Z,7.09
2023-04-27T18:30:23.180Z,7.03
2023-04-27T18:32:51.495Z,7.04
2023-04-27T18:35:18.775Z,7.06
2023-04-27T18:37:50.135Z,6.91
2023-04-27T18:40:21.424Z,6.77
2023-04-27T18:42:50.674Z,6.67
2023-04-27T18:45:18.076Z,6.55
2023-04-27T18:47:45.322Z,6.54
2023-04-27T18:50:17.388Z,6.54
2023-04-27T18:52:45.118Z,6.55
2023-04-27T18:55:14.057Z,6.60
2023-04-27T18:57:41.414Z,6.56
2023-04-27T19:00:10.829Z,6.41
2023-04-27T19:02:38.669Z,6.34
2023-04-27T19:05:12.414Z,6.26
2023-04-27T19:07:42.047Z,6.24
2023-04-27T19:10:10.234Z,6.29
2023-04-27T19:12:38.315Z,6.37
2023-04-27T19:15:05.885Z,6.48
2023-04-27T19:17:33.279Z,6.54
2023-04-27T19:20:02.025Z,6.44
2023-04-27T19:22:34.110Z,6.39
2023-04-27T19:25:01.270Z,6.50
2023-04-27T19:27:28.636Z,6.42
2023-04-27T19:29:58.616Z,6.39
2023-04-27T19:32:28.376Z,6.28
2023-04-27T19:34:57.225Z,6.33
2023-04-27T19:37:25.228Z,6.40
2023-04-27T19:39:53.813Z,6.43
2023-04-27T19:42:25.030Z,6.42
2023-04-27T19:44:52.172Z,6.37
2023-04-27T19:47:19.379Z,6.45
2023-04-27T19:49:46.825Z,6.57
2023-04-27T19:52:14.150Z,6.63
2023-04-27T19:54:41.716Z,6.62
2023-04-27T19:57:09.126Z,6.62
2023-04-27T19:59:36.560Z,6.54
2023-04-27T20:02:04.391Z,6.49
2023-04-27T20:04:33.090Z,6.56
2023-04-27T20:07:05.097Z,6.57
2023-04-27T20:09:33.791Z,6.52
2023-04-27T20:12:01.443Z,6.38
2023-04-27T20:14:31.148Z,6.17
2023-04-27T20:16:58.282Z,6.04
2023-04-27T20:19:25.373Z,6.17
2023-04-27T20:21:52.582Z,6.34
2023-04-27T20:24:19.840Z,6.46
2023-04-27T20:26:47.423Z,6.64
2023-04-27T20:29:14.519Z,6.66
2023-04-27T20:31:41.688Z,6.59
2023-04-27T20:34:09.085Z,6.43
2023-04-27T20:36:36.482Z,6.40
2023-04-27T20:39:06.465Z,6.49
2023-04-27T20:41:33.836Z,6.48
2023-04-27T20:44:02.040Z,6.38
2023-04-27T20:46:29.866Z,6.32
2023-04-27T20:48:56.885Z,6.29
2023-04-27T20:51:24.087Z,6.36
2023-04-27T20:53:51.448Z,6.45
2023-04-27T20:56:18.823Z,6.38
2023-04-27T20:58:46.338Z,6.27
2023-04-27T21:01:13.770Z,6.35
2023-04-27T21:03:41.583Z,6.30
2023-04-27T21:06:09.254Z,6.23
2023-04-27T21:08:39.224Z,5.97
2023-04-27T21:11:06.704Z,5.79
2023-04-27T21:13:33.854Z,5.58
2023-04-27T21:16:02.619Z,5.60
2023-04-27T21:18:30.892Z,5.68
2023-04-27T21:20:58.458Z,5.59
2023-04-27T21:23:25.752Z,5.77
2023-04-27T21:25:53.245Z,5.80
2023-04-27T21:28:20.430Z,5.76
2023-04-27T21:30:47.521Z,5.80
2023-04-27T21:33:14.790Z,5.61
2023-04-27T21:35:41.907Z,5.44
2023-04-27T21:38:09.053Z,5.41
2023-04-27T21:40:36.529Z,5.35
2023-04-27T21:43:03.626Z,5.43
2023-04-27T21:45:31.136Z,5.61
2023-04-27T21:48:01.264Z,5.63
2023-04-27T21:50:28.356Z,5.57
2023-04-27T21:52:55.408Z,5.63
2023-04-27T21:55:23.700Z,5.56
2023-04-27T21:57:50.895Z,5.40
2023-04-27T22:00:19.019Z,5.42
2023-04-27T22:02:46.177Z,5.36
2023-04-27T22:05:14.099Z,5.33
2023-04-27T22:07:41.462Z,5.22
2023-04-27T22:10:09.204Z,5.21
2023-04-27T22:12:36.316Z,5.28
2023-04-27T22:15:03.571Z,5.16
2023-04-27T22:17:30.669Z,5.16
2023-04-27T22:19:59.155Z,5.28
2023-04-27T22:22:26.497Z,5.18
2023-04-27T22:24:53.570Z,5.09
2023-04-27T22:27:22.186Z,5.04
2023-04-27T22:29:49.728Z,4.97
2023-04-27T22:32:18.063Z,4.98
2023-04-27T22:34:45.364Z,4.91
2023-04-27T22:37:12.406Z,4.87
2023-04-27T22:39:39.519Z,4.85
2023-04-27T22:42:06.809Z,4.61
2023-04-27T22:44:34.185Z,4.48
2023-04-27T22:47:02.440Z,4.41
2023-04-27T22:49:29.442Z,4.37
2023-04-27T22:51:57.813Z,4.29
2023-04-27T22:54:25.013Z,4.35
2023-04-27T22:56:52.621Z,4.24
2023-04-27T22:59:25.621Z,4.32
2023-04-27T23:01:53.815Z,4.25
2023-04-27T23:04:23.233Z,4.12
2023-04-27T23:06:53.672Z,4.14
2023-04-27T23:09:24.390Z,4.11
2023-04-27T23:11:51.478Z,4.18
2023-04-27T23:14:18.539Z,4.10
2023-04-27T23:16:46.465Z,4.05
2023-04-27T23:19:17.927Z,4.16
2023-04-27T23:21:46.000Z,4.11
2023-04-27T23:24:13.369Z,4.04
2023-04-27T23:26:40.829Z,4.04
2023-04-27T23:29:08.117Z,4.06
2023-04-27T23:31:35.814Z,4.06
2023-04-27T23:34:03.355Z,4.13
2023-04-27T23:36:30.856Z,3.97
2023-04-27T23:38:57.913Z,3.94
2023-04-27T23:41:25.018Z,3.85
2023-04-27T23:43:52.062Z,3.93
2023-04-27T23:46:19.172Z,3.77
2023-04-27T23:48:46.290Z,3.71
2023-04-27T23:51:13.324Z,3.74
2023-04-27T23:53:40.419Z,3.84
2023-04-27T23:56:18.620Z,3.79
2023-04-27T23:58:45.887Z,3.71
